sensor_id;sensor_type;location;lat;lon;timestamp;pressure;altitude;pressure_sealevel;temperature;humidity
48027;BME280;50714;49.208;5.364;2024-03-23T00:58:59;98914.84;;;11.97;81.91
48027;BME280;50714;49.208;5.364;2024-03-23T01:09:00;98908.66;;;11.89;82.31
48027;BME280;50714;49.208;5.364;2024-03-23T01:19:00;98907.34;;;11.80;82.87
48027;BME280;50714;49.208;5.364;2024-03-23T01:29:00;98919.31;;;11.66;83.91
48027;BME280;50714;49.208;5.364;2024-03-23T01:39:01;98897.44;;;11.49;85.11
48027;BME280;50714;49.208;5.364;2024-03-23T01:49:01;98893.38;;;11.40;85.55
48027;BME280;50714;49.208;5.364;2024-03-23T01:59:07;98892.72;;;11.45;88.03
48027;BME280;50714;49.208;5.364;2024-03-23T02:09:08;98907.31;;;11.37;88.61
48027;BME280;50714;49.208;5.364;2024-03-23T02:19:08;98898.88;;;11.34;88.21
48027;BME280;50714;49.208;5.364;2024-03-23T02:29:08;98906.31;;;11.13;88.12
48027;BME280;50714;49.208;5.364;2024-03-23T02:39:09;98915.19;;;10.96;87.79
48027;BME280;50714;49.208;5.364;2024-03-23T02:49:09;98922.72;;;10.87;87.57
48027;BME280;50714;49.208;5.364;2024-03-23T02:59:09;98933.72;;;10.61;88.03
48027;BME280;50714;49.208;5.364;2024-03-23T03:09:10;98937.28;;;10.54;89.24
48027;BME280;50714;49.208;5.364;2024-03-23T03:19:10;98943.94;;;10.52;88.31
48027;BME280;50714;49.208;5.364;2024-03-23T03:29:11;98957.50;;;10.39;87.64
48027;BME280;50714;49.208;5.364;2024-03-23T03:39:11;98978.91;;;10.27;86.61
48027;BME280;50714;49.208;5.364;2024-03-23T03:49:12;98966.28;;;10.14;85.75
48027;BME280;50714;49.208;5.364;2024-03-23T03:59:13;98989.53;;;10.09;84.76
48027;BME280;50714;49.208;5.364;2024-03-23T04:09:13;99002.19;;;10.08;84.29
48027;BME280;50714;49.208;5.364;2024-03-23T04:19:13;99011.53;;;10.06;84.89
48027;BME280;50714;49.208;5.364;2024-03-23T04:29:14;99014.44;;;10.04;84.92
48027;BME280;50714;49.208;5.364;2024-03-23T04:39:14;99038.91;;;10.03;85.47
48027;BME280;50714;49.208;5.364;2024-03-23T04:49:14;99037.44;;;9.93;84.93
48027;BME280;50714;49.208;5.364;2024-03-23T04:59:15;99046.00;;;9.71;85.54
48027;BME280;50714;49.208;5.364;2024-03-23T05:09:15;99046.22;;;9.43;86.83
48027;BME280;50714;49.208;5.364;2024-03-23T05:19:18;99046.00;;;9.51;87.25
48027;BME280;50714;49.208;5.364;2024-03-23T05:29:18;99060.72;;;9.48;86.86
48027;BME280;50714;49.208;5.364;2024-03-23T05:39:18;99066.69;;;9.24;88.14
48027;BME280;50714;49.208;5.364;2024-03-23T05:49:22;99078.94;;;9.20;90.21
48027;BME280;50714;49.208;5.364;2024-03-23T05:59:22;99098.19;;;9.23;90.22
48027;BME280;50714;49.208;5.364;2024-03-23T06:09:22;99091.56;;;9.33;90.81
48027;BME280;50714;49.208;5.364;2024-03-23T06:19:23;99122.66;;;9.35;90.14
48027;BME280;50714;49.208;5.364;2024-03-23T06:29:23;99131.94;;;9.19;89.73
48027;BME280;50714;49.208;5.364;2024-03-23T06:39:23;99155.34;;;9.26;90.07
48027;BME280;50714;49.208;5.364;2024-03-23T06:49:24;99162.16;;;9.21;89.90
48027;BME280;50714;49.208;5.364;2024-03-23T06:59:24;99180.91;;;9.43;88.51
48027;BME280;50714;49.208;5.364;2024-03-23T07:09:24;99186.53;;;9.68;87.01
48027;BME280;50714;49.208;5.364;2024-03-23T07:19:26;99199.84;;;10.09;84.29
48027;BME280;50714;49.208;5.364;2024-03-23T07:29:26;99207.44;;;10.84;84.53
48027;BME280;50714;49.208;5.364;2024-03-23T07:39:27;99216.38;;;10.85;79.79
48027;BME280;50714;49.208;5.364;2024-03-23T07:49:27;99233.03;;;10.55;79.00
48027;BME280;50714;49.208;5.364;2024-03-23T07:59:28;99255.34;;;11.09;78.94
48027;BME280;50714;49.208;5.364;2024-03-23T08:09:31;99249.19;;;10.75;75.64
48027;BME280;50714;49.208;5.364;2024-03-23T08:19:31;99266.13;;;13.71;75.04
48027;BME280;50714;49.208;5.364;2024-03-23T08:29:31;99278.94;;;14.88;66.33
48027;BME280;50714;49.208;5.364;2024-03-23T08:39:32;99268.78;;;14.19;63.50
48027;BME280;50714;49.208;5.364;2024-03-23T08:49:32;99270.00;;;13.08;60.84
48027;BME280;50714;49.208;5.364;2024-03-23T08:59:32;99248.22;;;12.35;63.91
48027;BME280;50714;49.208;5.364;2024-03-23T09:09:33;99243.31;;;11.94;63.83
48027;BME280;50714;49.208;5.364;2024-03-23T09:19:33;99244.91;;;11.19;66.18
48027;BME280;50714;49.208;5.364;2024-03-23T09:29:33;99253.16;;;16.40;67.63
48027;BME280;50714;49.208;5.364;2024-03-23T09:39:34;99250.41;;;17.28;54.19
48027;BME280;50714;49.208;5.364;2024-03-23T09:49:34;99234.38;;;16.72;57.02
48027;BME280;50714;49.208;5.364;2024-03-23T09:59:36;99237.53;;;17.89;54.10
48027;BME280;50714;49.208;5.364;2024-03-23T10:09:37;99238.97;;;17.70;50.05
48027;BME280;50714;49.208;5.364;2024-03-23T10:19:37;99271.59;;;15.24;51.14
48027;BME280;50714;49.208;5.364;2024-03-23T10:29:37;99308.97;;;13.07;53.36
48027;BME280;50714;49.208;5.364;2024-03-23T10:39:39;99311.22;;;11.79;54.67
48027;BME280;50714;49.208;5.364;2024-03-23T10:49:40;99278.09;;;11.39;60.60
48027;BME280;50714;49.208;5.364;2024-03-23T10:59:40;99262.63;;;16.03;53.86
48027;BME280;50714;49.208;5.364;2024-03-23T11:09:41;99251.53;;;14.02;55.22
48027;BME280;50714;49.208;5.364;2024-03-23T11:19:53;99233.25;;;13.49;57.01
48027;BME280;50714;49.208;5.364;2024-03-23T11:29:54;99207.47;;;15.80;58.11
48027;BME280;50714;49.208;5.364;2024-03-23T11:39:54;99197.19;;;15.01;54.24
48027;BME280;50714;49.208;5.364;2024-03-23T11:49:55;99180.19;;;16.75;51.84
48027;BME280;50714;49.208;5.364;2024-03-23T11:59:55;99177.38;;;14.78;51.81
48027;BME280;50714;49.208;5.364;2024-03-23T12:10:03;99146.09;;;14.63;49.33
48027;BME280;50714;49.208;5.364;2024-03-23T12:20:04;99155.75;;;14.83;48.53
48027;BME280;50714;49.208;5.364;2024-03-23T12:30:05;99193.56;;;12.70;52.96
48027;BME280;50714;49.208;5.364;2024-03-23T12:40:07;99175.03;;;12.85;58.62
48027;BME280;50714;49.208;5.364;2024-03-23T12:50:08;99146.34;;;13.32;59.14
48027;BME280;50714;49.208;5.364;2024-03-23T13:00:10;99128.44;;;13.73;57.44
48027;BME280;50714;49.208;5.364;2024-03-23T13:10:11;99115.22;;;13.76;54.35
48027;BME280;50714;49.208;5.364;2024-03-23T13:20:12;99101.38;;;13.43;54.02
48027;BME280;50714;49.208;5.364;2024-03-23T13:30:14;99149.25;;;12.64;54.67
48027;BME280;50714;49.208;5.364;2024-03-23T13:40:16;99230.25;;;10.88;57.14
48027;BME280;50714;49.208;5.364;2024-03-23T13:50:16;99247.66;;;9.61;60.36
48027;BME280;50714;49.208;5.364;2024-03-23T14:00:16;99211.78;;;8.99;64.81
48027;BME280;50714;49.208;5.364;2024-03-23T14:10:18;99199.22;;;8.65;66.48
48027;BME280;50714;49.208;5.364;2024-03-23T14:20:18;99230.50;;;8.73;67.13
48027;BME280;50714;49.208;5.364;2024-03-23T14:30:19;99239.63;;;8.23;68.90
48027;BME280;50714;49.208;5.364;2024-03-23T14:40:19;99216.09;;;8.03;71.76
48027;BME280;50714;49.208;5.364;2024-03-23T14:50:19;99184.75;;;8.38;72.65
48027;BME280;50714;49.208;5.364;2024-03-23T15:00:21;99190.06;;;8.60;72.96
48027;BME280;50714;49.208;5.364;2024-03-23T15:10:22;99190.38;;;8.78;71.88
48027;BME280;50714;49.208;5.364;2024-03-23T15:20:23;99170.28;;;8.74;72.40
48027;BME280;50714;49.208;5.364;2024-03-23T15:30:23;99114.19;;;8.77;73.30
48027;BME280;50714;49.208;5.364;2024-03-23T15:40:24;99109.47;;;8.86;74.27
48027;BME280;50714;49.208;5.364;2024-03-23T15:50:24;99084.06;;;9.02;73.82
48027;BME280;50714;49.208;5.364;2024-03-23T16:00:25;99091.78;;;9.18;71.75
48027;BME280;50714;49.208;5.364;2024-03-23T16:10:25;99083.22;;;8.95;70.26
48027;BME280;50714;49.208;5.364;2024-03-23T16:20:25;99060.88;;;8.94;71.35
48027;BME280;50714;49.208;5.364;2024-03-23T16:30:26;99048.38;;;8.80;70.27
48027;BME280;50714;49.208;5.364;2024-03-23T16:40:29;99047.13;;;8.76;71.56
48027;BME280;50714;49.208;5.364;2024-03-23T16:50:29;99047.63;;;8.93;71.74
48027;BME280;50714;49.208;5.364;2024-03-23T17:00:29;99031.44;;;8.73;72.38
48027;BME280;50714;49.208;5.364;2024-03-23T17:10:30;99033.88;;;8.74;72.75
48027;BME280;50714;49.208;5.364;2024-03-23T17:20:30;99029.09;;;8.63;72.90
48027;BME280;50714;49.208;5.364;2024-03-23T17:30:30;99011.97;;;8.71;74.14
48027;BME280;50714;49.208;5.364;2024-03-23T17:40:31;99010.94;;;8.78;75.25
48027;BME280;50714;49.208;5.364;2024-03-23T17:50:31;99014.44;;;8.66;75.59
48027;BME280;50714;49.208;5.364;2024-03-23T18:00:34;99048.94;;;8.55;75.38
48027;BME280;50714;49.208;5.364;2024-03-23T18:10:34;99042.78;;;8.20;75.32
48027;BME280;50714;49.208;5.364;2024-03-23T18:20:36;99019.91;;;8.03;76.78
48027;BME280;50714;49.208;5.364;2024-03-23T18:30:36;99017.56;;;7.87;75.89
48027;BME280;50714;49.208;5.364;2024-03-23T18:40:36;99022.16;;;7.65;76.47
48027;BME280;50714;49.208;5.364;2024-03-23T18:50:37;99013.22;;;7.58;77.14
48027;BME280;50714;49.208;5.364;2024-03-23T19:00:38;99007.63;;;7.53;78.30
48027;BME280;50714;49.208;5.364;2024-03-23T19:10:38;98993.91;;;7.41;81.22
48027;BME280;50714;49.208;5.364;2024-03-23T19:20:39;98969.81;;;7.48;83.62
48027;BME280;50714;49.208;5.364;2024-03-23T19:30:39;98981.44;;;7.62;83.59
48027;BME280;50714;49.208;5.364;2024-03-23T19:40:40;98960.53;;;7.57;83.17
48027;BME280;50714;49.208;5.364;2024-03-23T19:50:41;98961.16;;;7.52;83.26
48027;BME280;50714;49.208;5.364;2024-03-23T20:00:41;98965.16;;;7.35;83.93
48027;BME280;50714;49.208;5.364;2024-03-23T20:10:48;98957.50;;;7.32;85.61
48027;BME280;50714;49.208;5.364;2024-03-23T20:20:48;98964.09;;;7.30;85.91
48027;BME280;50714;49.208;5.364;2024-03-23T20:30:59;98968.66;;;7.29;87.30
48027;BME280;50714;49.208;5.364;2024-03-23T20:41:00;98971.91;;;7.25;86.35
48027;BME280;50714;49.208;5.364;2024-03-23T20:51:03;98981.50;;;7.12;85.60
48027;BME280;50714;49.208;5.364;2024-03-23T21:01:05;98984.63;;;7.16;85.69
48027;BME280;50714;49.208;5.364;2024-03-23T21:11:05;98977.94;;;7.05;84.75
48027;BME280;50714;49.208;5.364;2024-03-23T21:21:07;98968.81;;;7.00;84.49
48027;BME280;50714;49.208;5.364;2024-03-23T21:31:09;98979.03;;;6.90;85.46
48027;BME280;50714;49.208;5.364;2024-03-23T21:41:09;98968.88;;;6.85;85.61
48027;BME280;50714;49.208;5.364;2024-03-23T21:51:09;98956.81;;;6.74;85.60
48027;BME280;50714;49.208;5.364;2024-03-23T22:01:10;98944.88;;;6.77;86.20
48027;BME280;50714;49.208;5.364;2024-03-23T22:11:10;98924.06;;;6.79;85.95
48027;BME280;50714;49.208;5.364;2024-03-23T22:21:10;98914.53;;;6.98;86.14
48027;BME280;50714;49.208;5.364;2024-03-23T22:31:13;98919.94;;;7.04;85.09
48027;BME280;50714;49.208;5.364;2024-03-23T22:41:13;98917.72;;;7.08;85.20
48027;BME280;50714;49.208;5.364;2024-03-23T22:51:15;98910.72;;;7.13;85.31
48027;BME280;50714;49.208;5.364;2024-03-23T23:01:15;98906.16;;;7.07;84.99
48027;BME280;50714;49.208;5.364;2024-03-23T23:11:16;98906.56;;;7.11;85.96
48027;BME280;50714;49.208;5.364;2024-03-23T23:21:16;98898.69;;;7.09;86.06
48027;BME280;50714;49.208;5.364;2024-03-23T23:31:18;98896.38;;;7.00;86.28
48027;BME280;50714;49.208;5.364;2024-03-23T23:41:18;98895.94;;;6.96;87.10
48027;BME280;50714;49.208;5.364;2024-03-23T23:51:19;98895.69;;;6.91;87.32
